EGPM/SCS METAR and TAF weather

Enter ICAO airport designator
Station Type Date Time Source
EGPM METAR 2019/04/21 22:20 UTC NOAA

EGPM 212220Z AUTO 18016KT 9999 NCD 13/09 Q1007


Station Type Date Time Source
EGPM Decoded METAR 2019/04/21 22:20 UTC NOAA

Scatsa / Shetland Island, United Kingdom (EGPM) 60-26N 001-18W
Apr 21, 2019 - 06:20 PM EDT / 2019.04.21 2220 UTC
Wind: from the S (180 degrees) at 18 MPH (16 KT):0
Visibility: greater than 7 mile(s):0
Temperature: 55 F (13 C)
Dew Point: 48 F (9 C)
Relative Humidity: 76%
Pressure (altimeter): 29.74 in. Hg (1007 hPa)
ob: EGPM 212220Z AUTO 18016KT 9999 NCD 13/09 Q1007
cycle: 22

Station Type Date Time Source
EGPM TAF 2013/04/29 03:39 UTC NOAA

TAF TAF EGPM 290337Z 2903/2915 22005KT 9999 SCT030 PROB30
TEMPO 2903/2906 7000 SHRAGS
BECMG 2906/2909 32015KT PROB40
TEMPO 2906/2915 6000 SHRA SHGS BKN012CB

Example: see airport list